createdAt,value
2017-10-20T00:00:55.445Z,24.47
2017-10-20T00:03:23.529Z,37.30
2017-10-20T00:05:51.621Z,32.30
2017-10-20T00:08:20.499Z,29.30
2017-10-20T00:10:49.355Z,26.77
2017-10-20T00:13:17.447Z,32.33
2017-10-20T00:15:45.536Z,30.73
2017-10-20T00:18:14.426Z,34.90
2017-10-20T00:20:42.503Z,33.63
2017-10-20T00:23:11.365Z,34.17
2017-10-20T00:25:39.447Z,29.93
2017-10-20T00:28:07.539Z,31.30
2017-10-20T00:30:36.633Z,29.77
2017-10-20T00:33:05.504Z,28.37
2017-10-20T00:35:33.580Z,25.50
2017-10-20T00:38:01.705Z,25.50
2017-10-20T00:40:30.552Z,31.90
2017-10-20T00:42:58.652Z,30.77
2017-10-20T00:45:26.754Z,30.43
2017-10-20T00:47:54.855Z,26.80
2017-10-20T00:50:22.946Z,30.00
2017-10-20T00:52:51.024Z,29.77
2017-10-20T00:55:19.896Z,28.10
2017-10-20T00:57:47.983Z,28.97
2017-10-20T01:00:16.085Z,25.03
2017-10-20T01:02:44.185Z,25.20
2017-10-20T01:05:12.337Z,29.33
2017-10-20T01:07:40.436Z,25.90
2017-10-20T01:10:08.528Z,29.83
2017-10-20T01:12:36.621Z,30.23
2017-10-20T01:15:04.736Z,31.27
2017-10-20T01:17:32.822Z,28.73
2017-10-20T01:20:01.682Z,34.00
2017-10-20T01:22:30.544Z,30.90
2017-10-20T01:24:58.752Z,30.80
2017-10-20T01:27:27.596Z,34.20
2017-10-20T01:29:55.697Z,30.80
2017-10-20T01:32:24.560Z,30.37
2017-10-20T01:34:52.669Z,31.83
2017-10-20T01:37:21.523Z,38.30
2017-10-20T01:39:49.634Z,36.67
2017-10-20T01:42:18.483Z,33.23
2017-10-20T01:44:46.595Z,32.90
2017-10-20T01:47:15.443Z,29.70
2017-10-20T01:49:43.534Z,32.23
2017-10-20T01:52:11.634Z,32.57
2017-10-20T01:54:40.487Z,33.27
2017-10-20T01:57:08.615Z,38.57
2017-10-20T01:59:36.768Z,35.80
2017-10-20T02:02:05.632Z,43.00
2017-10-20T02:04:33.731Z,34.10
2017-10-20T02:07:02.588Z,30.77
2017-10-20T02:09:30.672Z,31.73
2017-10-20T02:11:58.772Z,31.23
2017-10-20T02:14:26.858Z,26.03
2017-10-20T02:16:54.957Z,25.23
2017-10-20T02:19:23.808Z,26.30
2017-10-20T02:21:52.687Z,27.30
2017-10-20T02:24:21.540Z,26.20
2017-10-20T02:26:49.619Z,27.40
2017-10-20T02:29:17.727Z,28.17
2017-10-20T02:31:46.594Z,29.07
2017-10-20T02:34:14.688Z,26.63
2017-10-20T02:36:42.776Z,23.53
2017-10-20T02:39:11.640Z,25.87
2017-10-20T02:41:39.721Z,24.93
2017-10-20T02:44:07.825Z,25.03
2017-10-20T02:46:35.902Z,25.03
2017-10-20T02:49:04.005Z,28.93
2017-10-20T02:51:32.090Z,29.03
2017-10-20T02:54:00.184Z,27.70
2017-10-20T02:56:28.277Z,34.17
2017-10-20T02:58:57.150Z,32.77
2017-10-20T03:01:25.224Z,27.77
2017-10-20T03:03:53.315Z,30.97
2017-10-20T03:06:22.174Z,33.70
2017-10-20T03:08:50.276Z,26.97
2017-10-20T03:11:19.140Z,28.97
2017-10-20T03:13:47.220Z,26.47
2017-10-20T03:16:15.313Z,25.40
2017-10-20T03:18:44.155Z,30.27
2017-10-20T03:21:12.248Z,28.00
2017-10-20T03:23:40.326Z,31.77
2017-10-20T03:26:08.411Z,28.77
2017-10-20T03:28:37.264Z,26.40
2017-10-20T03:31:05.384Z,22.43
2017-10-20T03:33:33.455Z,27.97
2017-10-20T03:36:02.331Z,26.30
2017-10-20T03:38:30.438Z,27.07
2017-10-20T03:40:58.528Z,23.70
2017-10-20T03:43:26.618Z,25.90
2017-10-20T03:45:54.721Z,29.33
2017-10-20T03:48:22.884Z,22.20
2017-10-20T03:50:50.955Z,27.23
2017-10-20T03:53:19.050Z,30.07
2017-10-20T03:55:48.848Z,27.53
2017-10-20T03:58:16.928Z,26.27
2017-10-20T04:00:45.014Z,26.17
2017-10-20T04:03:13.878Z,26.77
2017-10-20T04:05:41.964Z,25.90
2017-10-20T04:08:10.090Z,29.10
2017-10-20T04:10:38.176Z,27.40
2017-10-20T04:13:06.290Z,24.17
2017-10-20T04:15:35.174Z,37.67
2017-10-20T04:18:03.273Z,26.67
2017-10-20T04:20:32.129Z,27.77
2017-10-20T04:23:00.292Z,21.33
2017-10-20T04:25:28.390Z,25.23
2017-10-20T04:27:57.277Z,25.37
2017-10-20T04:30:25.384Z,23.87
2017-10-20T04:32:53.528Z,24.20
2017-10-20T04:35:21.628Z,25.30
2017-10-20T04:37:49.737Z,29.30
2017-10-20T04:40:17.847Z,28.43
2017-10-20T04:42:45.958Z,29.40
2017-10-20T04:45:14.077Z,27.97
2017-10-20T04:47:42.173Z,29.47
2017-10-20T04:50:11.062Z,29.10
2017-10-20T04:52:39.912Z,25.13
2017-10-20T04:55:08.015Z,29.10
2017-10-20T04:57:36.110Z,29.53
2017-10-20T05:00:04.994Z,31.70
2017-10-20T05:02:33.880Z,30.83
2017-10-20T05:05:02.764Z,30.20
2017-10-20T05:07:30.880Z,31.77
2017-10-20T05:09:59.021Z,31.10
2017-10-20T05:12:28.033Z,39.20
2017-10-20T05:14:56.158Z,32.20
2017-10-20T05:17:24.272Z,32.30
2017-10-20T05:19:53.146Z,32.27
2017-10-20T05:22:21.255Z,27.20
2017-10-20T05:24:49.369Z,27.70
2017-10-20T05:27:17.465Z,32.93
2017-10-20T05:29:45.562Z,30.27
2017-10-20T05:32:13.714Z,32.03
2017-10-20T05:34:42.032Z,37.10
2017-10-20T05:37:10.909Z,25.47
2017-10-20T05:39:39.005Z,32.30
2017-10-20T05:42:07.114Z,27.87
2017-10-20T05:44:35.218Z,22.87
2017-10-20T05:47:04.082Z,38.80
2017-10-20T05:49:32.164Z,31.63
2017-10-20T05:52:00.254Z,40.60
2017-10-20T05:54:29.206Z,33.87
2017-10-20T05:56:57.309Z,35.57
2017-10-20T05:59:25.431Z,37.67
2017-10-20T06:01:53.533Z,32.43
2017-10-20T06:04:21.628Z,32.77
2017-10-20T06:06:50.513Z,35.80
2017-10-20T06:09:18.599Z,32.37
2017-10-20T06:11:47.497Z,36.17
2017-10-20T06:14:16.354Z,46.93
2017-10-20T06:16:44.445Z,42.40
2017-10-20T06:19:12.562Z,28.90
2017-10-20T06:21:41.421Z,27.87
2017-10-20T06:24:10.268Z,27.47
2017-10-20T06:26:38.373Z,29.57
2017-10-20T06:29:06.487Z,33.00
2017-10-20T06:31:34.581Z,22.67
2017-10-20T06:34:02.704Z,26.87
2017-10-20T06:36:30.813Z,26.00
2017-10-20T06:38:58.922Z,24.80
2017-10-20T06:41:27.092Z,27.27
2017-10-20T06:47:12.512Z,29.73
2017-10-20T06:49:40.620Z,28.43
2017-10-20T06:52:08.762Z,31.63
2017-10-20T06:54:36.847Z,23.53
2017-10-20T06:57:05.721Z,23.93
2017-10-20T06:59:33.818Z,22.10
2017-10-20T07:02:01.918Z,32.23
2017-10-20T07:04:30.018Z,29.33
2017-10-20T07:06:58.120Z,25.13
2017-10-20T07:09:26.999Z,25.90
2017-10-20T07:11:55.888Z,25.37
2017-10-20T07:14:23.979Z,23.70
2017-10-20T07:16:52.854Z,24.00
2017-10-20T07:19:30.848Z,19.43
2017-10-20T07:21:58.952Z,27.67
2017-10-20T07:24:27.924Z,21.10
2017-10-20T07:26:56.028Z,22.80
2017-10-20T07:29:24.893Z,30.00
2017-10-20T07:31:52.990Z,24.73
2017-10-20T07:34:21.846Z,24.50
2017-10-20T07:36:49.954Z,23.77
2017-10-20T07:39:18.805Z,25.93
2017-10-20T07:41:46.933Z,25.47
2017-10-20T07:44:15.021Z,28.17
2017-10-20T07:46:43.135Z,28.27
2017-10-20T07:49:11.222Z,27.50
2017-10-20T07:51:40.112Z,30.80
2017-10-20T07:54:08.208Z,33.17
2017-10-20T07:56:36.321Z,28.43
2017-10-20T07:59:04.438Z,30.50
2017-10-20T08:01:33.316Z,28.97
2017-10-20T08:04:01.421Z,35.10
2017-10-20T08:06:29.531Z,35.70
2017-10-20T08:08:57.637Z,31.90
2017-10-20T08:11:25.738Z,34.47
2017-10-20T08:13:53.847Z,33.63
2017-10-20T08:16:21.960Z,39.23
2017-10-20T08:18:50.133Z,31.57
2017-10-20T08:21:19.011Z,29.60
2017-10-20T08:23:47.105Z,33.07
2017-10-20T08:26:15.973Z,45.60
2017-10-20T08:28:44.099Z,35.10
2017-10-20T08:31:12.207Z,31.63
2017-10-20T08:33:40.307Z,35.37
2017-10-20T08:36:08.417Z,44.57
2017-10-20T08:38:36.516Z,35.77
2017-10-20T08:41:04.613Z,36.47
2017-10-20T08:43:32.725Z,31.40
2017-10-20T08:46:00.839Z,36.87
2017-10-20T08:48:28.935Z,33.53
2017-10-20T08:50:57.024Z,32.03
2017-10-20T08:53:25.892Z,28.37
2017-10-20T08:55:54.002Z,32.63
2017-10-20T08:58:22.893Z,35.80
2017-10-20T09:00:51.756Z,32.83
2017-10-20T09:03:19.845Z,31.33
2017-10-20T09:05:48.721Z,27.37
2017-10-20T09:08:16.822Z,34.50
2017-10-20T09:10:45.708Z,26.57
2017-10-20T09:13:14.569Z,26.80
2017-10-20T09:15:42.685Z,25.10
2017-10-20T09:18:11.532Z,29.97
2017-10-20T09:20:39.645Z,31.13
2017-10-20T09:23:08.496Z,27.20
2017-10-20T09:25:36.600Z,35.07
2017-10-20T09:28:05.473Z,33.07
2017-10-20T09:30:33.564Z,34.67
2017-10-20T09:33:02.441Z,33.37
2017-10-20T09:35:30.536Z,32.43
2017-10-20T09:37:59.400Z,28.77
2017-10-20T09:40:27.486Z,31.30
2017-10-20T09:42:56.354Z,35.40
2017-10-20T09:45:24.464Z,29.03
2017-10-20T09:47:53.326Z,29.60
2017-10-20T09:50:21.420Z,28.43
2017-10-20T09:52:50.299Z,32.30
2017-10-20T09:55:20.318Z,31.07
2017-10-20T09:57:48.416Z,31.30
2017-10-20T10:00:17.262Z,47.37
2017-10-20T10:02:45.354Z,36.10
2017-10-20T10:05:13.428Z,35.10
2017-10-20T10:07:41.526Z,38.80
2017-10-20T10:10:10.369Z,39.80
2017-10-20T10:12:38.480Z,44.17
2017-10-20T10:15:07.342Z,43.27
2017-10-20T10:17:35.475Z,39.10
2017-10-20T10:20:03.559Z,34.50
2017-10-20T10:22:31.677Z,32.83
2017-10-20T10:25:00.551Z,37.43
2017-10-20T10:27:28.670Z,34.90
2017-10-20T10:29:56.770Z,36.40
2017-10-20T10:32:24.916Z,36.80
2017-10-20T10:34:52.993Z,34.57
2017-10-20T10:37:21.097Z,39.97
2017-10-20T10:39:49.180Z,34.40
2017-10-20T10:42:17.276Z,34.37
2017-10-20T10:44:45.386Z,33.30
2017-10-20T10:47:13.477Z,39.70
2017-10-20T10:49:41.645Z,37.80
2017-10-20T10:52:09.745Z,38.17
2017-10-20T10:54:37.846Z,36.57
2017-10-20T10:57:05.933Z,36.17
2017-10-20T10:59:34.797Z,37.30
2017-10-20T11:02:02.915Z,33.50
2017-10-20T11:04:31.022Z,44.07
2017-10-20T11:07:16.816Z,37.50
2017-10-20T11:10:02.833Z,34.63
2017-10-20T11:12:42.667Z,35.50
2017-10-20T11:15:10.756Z,39.67
2017-10-20T11:17:38.844Z,38.27
2017-10-20T11:20:07.715Z,38.17
2017-10-20T11:22:35.822Z,39.27
2017-10-20T11:25:03.920Z,42.17
2017-10-20T11:27:32.076Z,39.70
2017-10-20T11:30:00.189Z,35.23
2017-10-20T11:32:28.287Z,40.43
2017-10-20T11:34:56.402Z,47.20
2017-10-20T11:37:24.504Z,40.73
2017-10-20T11:39:52.597Z,43.37
2017-10-20T11:42:20.697Z,37.30
2017-10-20T11:44:49.558Z,45.67
2017-10-20T11:47:17.656Z,40.80
2017-10-20T11:49:46.542Z,38.93
2017-10-20T11:52:14.640Z,42.07
2017-10-20T11:54:42.722Z,41.17
2017-10-20T11:57:10.815Z,37.37
2017-10-20T11:59:38.900Z,41.67
2017-10-20T12:02:07.035Z,38.00
2017-10-20T12:04:35.130Z,38.33
2017-10-20T12:07:03.218Z,35.33
2017-10-20T12:09:31.333Z,37.13
2017-10-20T12:12:00.202Z,34.67
2017-10-20T12:14:28.298Z,33.90
2017-10-20T12:16:57.172Z,35.57
2017-10-20T12:19:25.289Z,34.63
2017-10-20T12:21:53.408Z,35.13
2017-10-20T12:24:21.552Z,33.40
2017-10-20T12:26:49.669Z,31.10
2017-10-20T12:29:17.759Z,29.97
2017-10-20T12:31:46.640Z,39.57
2017-10-20T12:34:15.507Z,34.67
2017-10-20T12:36:43.645Z,32.43
2017-10-20T12:39:11.747Z,35.23
2017-10-20T12:41:39.841Z,32.87
2017-10-20T12:44:07.966Z,38.80
2017-10-20T12:46:36.051Z,34.47
2017-10-20T12:49:04.174Z,35.40
2017-10-20T12:51:33.036Z,32.97
2017-10-20T12:54:01.134Z,35.10
2017-10-20T12:56:29.994Z,34.33
2017-10-20T12:58:58.097Z,38.37
2017-10-20T13:01:26.237Z,30.27
2017-10-20T13:03:54.400Z,31.50
2017-10-20T13:06:22.489Z,29.50
2017-10-20T13:08:50.601Z,27.10
2017-10-20T13:11:19.468Z,36.37
2017-10-20T13:13:47.565Z,29.57
2017-10-20T13:16:16.809Z,30.33
2017-10-20T13:18:44.914Z,32.97
2017-10-20T13:21:13.007Z,32.43
2017-10-20T13:23:41.862Z,30.53
2017-10-20T13:26:09.962Z,31.30
2017-10-20T13:28:38.825Z,29.20
2017-10-20T13:31:06.920Z,30.63
2017-10-20T13:33:34.992Z,29.70
2017-10-20T13:36:03.069Z,27.53
2017-10-20T13:38:31.158Z,32.10
2017-10-20T13:41:00.091Z,26.53
2017-10-20T13:43:28.181Z,33.20
2017-10-20T13:45:56.257Z,27.27
2017-10-20T13:48:24.355Z,26.13
2017-10-20T13:50:52.443Z,26.30
2017-10-20T13:53:21.308Z,27.17
2017-10-20T13:55:49.393Z,27.60
2017-10-20T13:58:17.501Z,23.63
2017-10-20T14:00:45.603Z,28.13
2017-10-20T14:03:13.728Z,28.60
2017-10-20T14:05:42.591Z,23.63
2017-10-20T14:08:10.660Z,37.20
2017-10-20T14:10:38.786Z,22.07
2017-10-20T14:13:06.909Z,22.00
2017-10-20T14:15:34.988Z,29.90
2017-10-20T14:18:03.073Z,30.73
2017-10-20T14:20:31.928Z,22.83
2017-10-20T14:23:00.018Z,22.93
2017-10-20T14:25:28.125Z,23.40
2017-10-20T14:27:56.984Z,23.13
2017-10-20T14:30:25.089Z,23.90
2017-10-20T14:32:53.941Z,26.23
2017-10-20T14:35:22.029Z,19.33
2017-10-20T14:37:50.115Z,20.73
2017-10-20T14:40:18.969Z,21.63
2017-10-20T14:42:47.053Z,19.60
2017-10-20T14:45:15.136Z,20.03
2017-10-20T14:47:43.218Z,25.63
2017-10-20T14:50:12.109Z,21.00
2017-10-20T14:52:40.980Z,21.07
2017-10-20T14:55:09.062Z,27.50
2017-10-20T14:57:37.160Z,26.60
2017-10-20T15:00:06.016Z,22.93
2017-10-20T15:02:34.124Z,22.70
2017-10-20T15:05:02.986Z,22.67
2017-10-20T15:07:31.074Z,14.93
2017-10-20T15:09:59.957Z,14.63
2017-10-20T15:12:28.093Z,11.97
2017-10-20T15:14:56.184Z,10.50
2017-10-20T15:17:24.300Z,9.23
2017-10-20T15:19:53.155Z,8.07
2017-10-20T15:22:37.734Z,9.83
2017-10-20T15:25:06.600Z,8.57
2017-10-20T15:27:51.847Z,7.47
2017-10-20T15:30:19.932Z,12.33
2017-10-20T15:32:48.026Z,10.40
2017-10-20T15:35:16.108Z,11.03
2017-10-20T15:37:44.204Z,11.30
2017-10-20T15:40:13.060Z,8.10
2017-10-20T15:42:41.148Z,10.67
2017-10-20T15:45:09.995Z,8.70
2017-10-20T15:47:38.097Z,8.10
2017-10-20T15:50:06.205Z,9.60
2017-10-20T15:52:35.069Z,8.90
2017-10-20T15:55:03.153Z,9.97
2017-10-20T15:57:31.233Z,8.80
2017-10-20T16:00:00.231Z,11.77
2017-10-20T16:02:28.345Z,11.00
2017-10-20T16:04:56.453Z,8.43
2017-10-20T16:07:24.549Z,12.87
2017-10-20T16:09:53.405Z,7.83
2017-10-20T16:12:21.504Z,12.37
2017-10-20T16:14:49.600Z,9.97
2017-10-20T16:17:17.709Z,9.50
2017-10-20T16:19:45.797Z,10.80
2017-10-20T16:22:13.902Z,9.37
2017-10-20T16:24:42.753Z,9.40
2017-10-20T16:27:10.832Z,10.20
2017-10-20T16:29:38.924Z,9.70
2017-10-20T16:32:07.004Z,9.50
2017-10-20T16:34:35.865Z,9.70
2017-10-20T16:37:03.940Z,10.90
2017-10-20T16:39:32.062Z,9.30
2017-10-20T16:42:00.914Z,9.20
2017-10-20T16:44:28.997Z,10.07
2017-10-20T16:46:57.107Z,8.40
2017-10-20T16:49:25.193Z,9.53
2017-10-20T16:51:53.289Z,10.00
2017-10-20T16:54:21.389Z,10.97
2017-10-20T16:56:49.472Z,11.10
2017-10-20T16:59:18.330Z,15.33
2017-10-20T17:01:46.424Z,10.10
2017-10-20T17:04:14.497Z,9.77
2017-10-20T17:06:42.573Z,9.80
2017-10-20T17:09:11.456Z,9.50
2017-10-20T17:11:39.591Z,11.03
2017-10-20T17:14:07.669Z,10.53
2017-10-20T17:16:35.747Z,12.87
2017-10-20T17:19:03.840Z,10.30
2017-10-20T17:21:31.929Z,8.73
2017-10-20T17:24:00.001Z,9.13
2017-10-20T17:26:28.076Z,11.10
2017-10-20T17:28:56.157Z,10.30
2017-10-20T17:31:25.004Z,9.57
2017-10-20T17:33:53.080Z,10.37
2017-10-20T17:36:21.153Z,11.17
2017-10-20T17:38:49.237Z,10.07
2017-10-20T17:41:17.312Z,11.13
2017-10-20T17:43:45.394Z,9.17
2017-10-20T17:46:13.469Z,9.93
2017-10-20T17:48:41.549Z,12.17
2017-10-20T17:51:10.394Z,9.77
2017-10-20T17:53:38.476Z,13.10
2017-10-20T17:56:06.550Z,11.23
2017-10-20T17:58:34.621Z,9.03
2017-10-20T18:01:02.691Z,12.23
2017-10-20T18:03:30.764Z,9.77
2017-10-20T18:05:59.096Z,10.47
2017-10-20T18:08:27.932Z,9.73
2017-10-20T18:10:56.012Z,8.60
2017-10-20T18:13:24.081Z,9.37
2017-10-20T18:15:52.209Z,9.60
2017-10-20T18:18:21.045Z,10.10
2017-10-20T18:20:49.125Z,9.60
2017-10-20T18:23:17.188Z,9.73
2017-10-20T18:25:45.277Z,9.03
2017-10-20T18:28:13.358Z,9.07
2017-10-20T18:30:41.443Z,9.20
2017-10-20T18:33:10.275Z,8.90
2017-10-20T18:35:38.346Z,11.33
2017-10-20T18:38:06.426Z,10.30
2017-10-20T18:40:34.504Z,9.57
2017-10-20T18:43:03.353Z,9.43
2017-10-20T18:45:32.188Z,9.80
2017-10-20T18:48:00.284Z,11.70
2017-10-20T18:50:28.364Z,9.73
2017-10-20T18:52:56.432Z,8.30
2017-10-20T18:55:24.508Z,15.03
2017-10-20T18:57:52.589Z,12.80
2017-10-20T19:00:21.429Z,9.30
2017-10-20T19:02:49.504Z,9.20
2017-10-20T19:05:17.582Z,10.67
2017-10-20T19:07:45.663Z,11.80
2017-10-20T19:10:13.732Z,10.77
2017-10-20T19:12:41.809Z,10.03
2017-10-20T19:15:09.875Z,7.73
2017-10-20T19:17:37.958Z,9.77
2017-10-20T19:20:06.038Z,9.00
2017-10-20T19:22:34.108Z,9.50
2017-10-20T19:25:02.189Z,9.20
2017-10-20T19:27:30.261Z,7.87
2017-10-20T19:29:58.332Z,6.97
2017-10-20T19:32:26.413Z,7.53
2017-10-20T19:34:54.473Z,7.23
2017-10-20T19:37:22.543Z,8.40
2017-10-20T19:39:50.642Z,7.80
2017-10-20T19:42:19.494Z,11.73
2017-10-20T19:44:47.565Z,8.73
2017-10-20T19:47:15.640Z,7.07
2017-10-20T19:49:43.712Z,7.40
2017-10-20T19:52:11.796Z,7.40
2017-10-20T19:54:39.868Z,7.60
2017-10-20T19:57:07.941Z,6.93
2017-10-20T19:59:36.000Z,6.60
2017-10-20T20:02:04.101Z,17.30
2017-10-20T20:04:32.176Z,10.90
2017-10-20T20:07:00.239Z,8.80
2017-10-20T20:09:28.316Z,8.07
2017-10-20T20:11:56.390Z,12.10
2017-10-20T20:14:25.270Z,9.90
2017-10-20T20:16:53.353Z,7.47
2017-10-20T20:19:21.436Z,10.83
2017-10-20T20:21:50.274Z,8.27
2017-10-20T20:24:18.368Z,12.13
2017-10-20T20:26:46.448Z,25.50
2017-10-20T20:29:14.541Z,20.97
2017-10-20T20:31:42.607Z,11.90
2017-10-20T20:34:14.555Z,9.80
2017-10-20T20:36:42.645Z,10.27
2017-10-20T20:39:10.728Z,9.57
2017-10-20T20:41:39.584Z,12.37
2017-10-20T20:44:07.668Z,7.20
2017-10-20T20:46:35.753Z,8.30
2017-10-20T20:49:03.844Z,12.23
2017-10-20T20:51:32.689Z,11.97
2017-10-20T20:54:00.760Z,9.80
2017-10-20T20:56:28.833Z,9.57
2017-10-20T20:58:56.903Z,8.93
2017-10-20T21:01:24.981Z,7.63
2017-10-20T21:03:53.070Z,14.23
2017-10-20T21:06:21.149Z,16.93
2017-10-20T21:08:49.261Z,29.77
2017-10-20T21:11:18.084Z,44.10
2017-10-20T21:13:46.169Z,28.70
2017-10-20T21:16:14.249Z,25.43
2017-10-20T21:18:42.335Z,21.00
2017-10-20T21:21:10.404Z,8.60
2017-10-20T21:23:38.487Z,6.83
2017-10-20T21:26:07.333Z,14.63
2017-10-20T21:28:35.410Z,9.93
2017-10-20T21:31:03.489Z,7.90
2017-10-20T21:33:31.576Z,9.47
2017-10-20T21:35:59.670Z,19.40
2017-10-20T21:38:28.520Z,11.40
2017-10-20T21:40:56.607Z,16.83
2017-10-20T21:43:24.716Z,18.33
2017-10-20T21:45:53.559Z,16.93
2017-10-20T21:48:21.649Z,15.67
2017-10-20T21:50:49.744Z,11.50
2017-10-20T21:53:18.612Z,12.40
2017-10-20T21:55:46.684Z,9.73
2017-10-20T21:58:14.759Z,8.10
2017-10-20T22:00:42.827Z,9.57
2017-10-20T22:03:10.913Z,7.50
2017-10-20T22:05:39.768Z,13.93
2017-10-20T22:08:07.854Z,9.87
2017-10-20T22:10:35.924Z,8.40
2017-10-20T22:13:03.996Z,10.00
2017-10-20T22:15:32.070Z,8.63
2017-10-20T22:18:00.148Z,8.37
2017-10-20T22:20:28.240Z,9.03
2017-10-20T22:22:56.329Z,14.40
2017-10-20T22:25:25.167Z,9.80
2017-10-20T22:27:53.252Z,8.70
2017-10-20T22:30:21.332Z,16.50
2017-10-20T22:32:49.428Z,15.37
2017-10-20T22:35:17.542Z,13.93
2017-10-20T22:37:45.645Z,12.30
2017-10-20T22:40:13.728Z,15.23
2017-10-20T22:42:41.812Z,13.13
2017-10-20T22:45:09.899Z,16.20
2017-10-20T22:47:38.745Z,17.20
2017-10-20T22:50:06.828Z,11.17
2017-10-20T22:52:34.912Z,9.40
2017-10-20T22:55:03.013Z,11.70
2017-10-20T22:57:31.875Z,10.27
2017-10-20T22:59:59.973Z,12.13
2017-10-20T23:02:28.830Z,11.23
2017-10-20T23:04:56.936Z,17.20
2017-10-20T23:07:25.808Z,12.63
2017-10-20T23:09:53.906Z,9.03
2017-10-20T23:12:21.994Z,9.50
2017-10-20T23:14:50.087Z,10.70
2017-10-20T23:17:18.176Z,9.47
2017-10-20T23:19:46.276Z,17.83
2017-10-20T23:22:14.360Z,8.70
2017-10-20T23:24:43.320Z,11.77
2017-10-20T23:27:11.416Z,12.20
2017-10-20T23:29:40.293Z,9.80
2017-10-20T23:32:08.382Z,8.43
2017-10-20T23:34:37.260Z,9.77
2017-10-20T23:37:05.340Z,8.20
2017-10-20T23:39:33.442Z,14.70
2017-10-20T23:42:02.333Z,6.37
2017-10-20T23:44:30.392Z,9.07
2017-10-20T23:46:59.243Z,10.90
2017-10-20T23:49:27.350Z,13.67
2017-10-20T23:51:56.216Z,11.77
2017-10-20T23:54:24.329Z,9.87
2017-10-20T23:56:53.196Z,11.30
2017-10-20T23:59:21.277Z,14.73
